Hlavní strana
METAR-TAF:

METAR-TAF

Letiště :

Tadoule Lake, Manitoba, Kanada

zeměpisná šířka: 58-42-22N, zeměpisná délka: 98-30-44W, výška: 281 m

Aktuální stav počasí

Zpráva byla vytvořena před 52 minutami, v 14:00 UTC
Jihojihozápadní vítr 10 kt s nárazy do 17 kt
Teplota -7°C
Vlhkost vzduchu 93%
Tlak 1017 hPa
Viditelnost: 14.5 km
Zataženo ve výšce 800 ft

METAR: CYBQ 281400Z AUTO 21010G17KT 9SM OVC008 M07/M08 A3003 RMK SLP196

Čas: 08:52 (14:52 UTC)


TAF: chybějící

Stav a předpovědi počasí z více než 4 000 letišť (zprávy METAR a TAF).

Červené a žluté tečky na mapě představují dostupné meteorologické stanice.

Když kurzor umístíte na tečku, zobrazí se název stanice.

Pak kliknutím zobrazíte stav a předpověď počasí.

Chcete-li změnit mapu, kliknutím na zelené tlačítko se znaménkem +mapu přiblížíte, kliknutím na zelené tlačítko se znaménkem – mapu oddálíte a kliknutím na zelené šipky přejdete na sousední mapy.


METAR-TAF: